createdAt,value
2018-12-12T00:00:43.828Z,3.60
2018-12-12T00:03:11.408Z,3.77
2018-12-12T00:05:38.947Z,3.40
2018-12-12T00:08:06.488Z,3.17
2018-12-12T00:10:34.059Z,3.43
2018-12-12T00:13:01.597Z,4.00
2018-12-12T00:15:29.375Z,3.10
2018-12-12T00:17:57.903Z,3.90
2018-12-12T00:20:25.474Z,3.73
2018-12-12T00:22:53.787Z,3.27
2018-12-12T00:25:21.364Z,3.97
2018-12-12T00:27:48.980Z,2.80
2018-12-12T00:30:17.096Z,3.40
2018-12-12T00:32:44.675Z,2.90
2018-12-12T00:35:12.251Z,3.67
2018-12-12T00:37:39.783Z,3.23
2018-12-12T00:40:07.363Z,2.90
2018-12-12T00:42:34.920Z,3.17
2018-12-12T00:45:02.523Z,3.43
2018-12-12T00:47:31.099Z,2.90
2018-12-12T00:49:58.676Z,3.47
2018-12-12T00:52:26.220Z,3.57
2018-12-12T00:54:53.794Z,3.20
2018-12-12T00:57:21.330Z,3.40
2018-12-12T00:59:48.903Z,3.40
2018-12-12T01:02:16.451Z,3.73
2018-12-12T01:04:44.027Z,3.57
2018-12-12T01:07:11.558Z,3.40
2018-12-12T01:09:39.123Z,3.20
2018-12-12T01:12:06.670Z,3.50
2018-12-12T01:14:34.247Z,3.77
2018-12-12T01:17:02.763Z,3.33
2018-12-12T01:19:31.108Z,3.03
2018-12-12T01:21:58.684Z,3.20
2018-12-12T01:24:26.258Z,3.20
2018-12-12T01:26:53.809Z,3.33
2018-12-12T01:29:21.383Z,3.67
2018-12-12T01:31:48.965Z,2.97
2018-12-12T01:34:16.543Z,3.50
2018-12-12T01:36:44.083Z,2.80
2018-12-12T01:39:13.623Z,2.80
2018-12-12T01:41:41.187Z,3.03
2018-12-12T01:44:08.767Z,2.90
2018-12-12T01:46:37.080Z,3.77
2018-12-12T01:49:04.651Z,2.80
2018-12-12T01:51:32.227Z,2.83
2018-12-12T01:53:59.766Z,3.10
2018-12-12T01:56:27.342Z,3.20
2018-12-12T01:58:54.881Z,3.27
2018-12-12T02:01:22.455Z,3.63
2018-12-12T02:03:50.002Z,4.40
2018-12-12T02:06:17.651Z,2.60
2018-12-12T02:08:46.244Z,3.37
2018-12-12T02:11:12.824Z,3.47
2018-12-12T02:13:40.359Z,2.93
2018-12-12T02:16:07.944Z,3.10
2018-12-12T02:18:35.496Z,2.60
2018-12-12T02:21:03.077Z,2.90
2018-12-12T02:23:31.593Z,2.53
2018-12-12T02:26:00.200Z,2.67
2018-12-12T02:28:27.745Z,3.00
2018-12-12T02:30:55.329Z,3.27
2018-12-12T02:33:23.649Z,2.70
2018-12-12T02:35:51.223Z,2.93
2018-12-12T02:38:18.760Z,2.33
2018-12-12T02:40:46.331Z,2.67
2018-12-12T02:43:13.876Z,3.00
2018-12-12T02:45:41.419Z,2.83
2018-12-12T02:48:08.993Z,2.37
2018-12-12T02:50:36.545Z,2.60
2018-12-12T02:53:04.136Z,2.60
2018-12-12T02:55:31.683Z,2.83
2018-12-12T02:57:59.255Z,2.10
2018-12-12T03:00:26.808Z,2.43
2018-12-12T03:02:54.403Z,2.47
2018-12-12T03:05:21.952Z,2.60
2018-12-12T03:07:49.500Z,2.63
2018-12-12T03:10:18.042Z,2.27
2018-12-12T03:12:45.594Z,2.90
2018-12-12T03:15:13.194Z,2.40
2018-12-12T03:17:41.815Z,2.30
2018-12-12T03:20:09.412Z,2.60
2018-12-12T03:22:36.987Z,2.20
2018-12-12T03:25:04.568Z,2.80
2018-12-12T03:27:32.864Z,2.47
2018-12-12T03:30:00.447Z,2.70
2018-12-12T03:32:28.017Z,2.77
2018-12-12T03:34:55.590Z,2.40
2018-12-12T03:37:23.125Z,2.87
2018-12-12T03:39:50.692Z,2.70
2018-12-12T03:42:18.280Z,2.43
2018-12-12T03:44:46.592Z,2.50
2018-12-12T03:47:14.165Z,2.40
2018-12-12T03:49:42.758Z,2.63
2018-12-12T03:52:12.321Z,3.00
2018-12-12T03:54:39.863Z,2.40
2018-12-12T03:57:08.204Z,3.07
2018-12-12T03:59:35.748Z,2.80
2018-12-12T04:02:03.324Z,2.93
2018-12-12T04:04:30.876Z,2.70
2018-12-12T04:06:59.198Z,2.80
2018-12-12T04:09:26.740Z,2.73
2018-12-12T04:11:55.048Z,3.03
2018-12-12T04:14:22.627Z,2.60
2018-12-12T04:16:50.216Z,3.00
2018-12-12T04:19:17.802Z,2.87
2018-12-12T04:21:45.348Z,2.90
2018-12-12T04:24:12.898Z,3.40
2018-12-12T04:26:40.472Z,2.70
2018-12-12T04:29:08.017Z,2.80
2018-12-12T04:31:36.569Z,2.80
2018-12-12T04:34:04.119Z,2.63
2018-12-12T04:36:31.707Z,3.00
2018-12-12T04:38:59.250Z,2.70
2018-12-12T04:41:26.798Z,2.80
2018-12-12T04:43:54.375Z,3.80
2018-12-12T04:46:21.953Z,2.93
2018-12-12T04:48:49.503Z,3.50
2018-12-12T04:51:17.075Z,2.73
2018-12-12T04:53:44.620Z,2.80
2018-12-12T04:56:12.971Z,2.80
2018-12-12T04:58:40.528Z,15.00
2018-12-12T05:01:08.108Z,21.53
2018-12-12T05:03:35.669Z,20.37
2018-12-12T05:06:04.390Z,7.77
2018-12-12T05:08:31.949Z,3.60
2018-12-12T05:10:59.501Z,3.50
2018-12-12T05:13:27.074Z,3.30
2018-12-12T05:15:54.645Z,3.20
2018-12-12T05:18:22.228Z,4.13
2018-12-12T05:20:50.541Z,4.93
2018-12-12T05:23:18.115Z,3.23
2018-12-12T05:25:45.691Z,2.80
2018-12-12T05:28:13.280Z,3.00
2018-12-12T05:30:41.594Z,2.80
2018-12-12T05:33:09.185Z,3.28
2018-12-12T05:35:37.729Z,3.00
2018-12-12T05:38:05.316Z,3.40
2018-12-12T05:40:33.870Z,3.20
2018-12-12T05:43:01.453Z,3.70
2018-12-12T05:45:29.044Z,3.90
2018-12-12T05:47:56.632Z,3.30
2018-12-12T05:50:24.191Z,3.30
2018-12-12T05:52:51.776Z,3.92
2018-12-12T05:55:19.331Z,3.17
2018-12-12T05:57:46.910Z,4.10
2018-12-12T06:00:14.465Z,5.30
2018-12-12T06:02:42.057Z,4.15
2018-12-12T06:05:09.607Z,5.10
2018-12-12T06:07:37.192Z,3.73
2018-12-12T06:10:04.740Z,3.50
2018-12-12T06:12:32.322Z,3.20
2018-12-12T06:14:59.876Z,5.97
2018-12-12T06:17:27.459Z,8.00
2018-12-12T06:19:55.012Z,8.02
2018-12-12T06:22:22.612Z,8.63
2018-12-12T06:24:50.163Z,8.10
2018-12-12T06:27:17.750Z,7.10
2018-12-12T06:29:45.292Z,5.27
2018-12-12T06:32:12.872Z,5.70
2018-12-12T06:34:41.162Z,4.30
2018-12-12T06:37:08.065Z,5.53
2018-12-12T06:39:39.559Z,5.40
2018-12-12T06:42:07.140Z,5.13
2018-12-12T06:44:34.695Z,3.93
2018-12-12T06:47:02.286Z,6.13
2018-12-12T06:49:30.620Z,3.70
2018-12-12T06:51:58.177Z,3.25
2018-12-12T06:54:25.755Z,3.65
2018-12-12T06:56:53.336Z,3.80
2018-12-12T06:59:21.683Z,3.23
2018-12-12T07:01:49.236Z,3.27
2018-12-12T07:04:16.817Z,3.10
2018-12-12T07:06:44.403Z,3.60
2018-12-12T07:09:11.989Z,3.50
2018-12-12T07:11:39.527Z,4.97
2018-12-12T07:14:07.868Z,4.90
2018-12-12T07:16:35.451Z,4.87
2018-12-12T07:19:03.024Z,3.73
2018-12-12T07:21:30.568Z,4.10
2018-12-12T07:23:58.144Z,4.30
2018-12-12T07:26:27.636Z,3.87
2018-12-12T07:28:55.209Z,4.30
2018-12-12T07:31:22.743Z,5.83
2018-12-12T07:33:50.323Z,6.15
2018-12-12T07:36:17.898Z,5.37
2018-12-12T07:38:45.493Z,3.47
2018-12-12T07:41:13.039Z,3.90
2018-12-12T07:43:40.610Z,3.90
2018-12-12T07:46:08.152Z,5.00
2018-12-12T07:48:35.734Z,7.10
2018-12-12T07:51:03.294Z,6.40
2018-12-12T07:53:30.881Z,7.00
2018-12-12T07:55:58.456Z,6.50
2018-12-12T07:58:26.049Z,7.00
2018-12-12T08:00:53.587Z,7.20
2018-12-12T08:03:21.128Z,6.50
2018-12-12T08:05:49.675Z,6.00
2018-12-12T08:08:17.222Z,10.43
2018-12-12T08:10:44.795Z,12.50
2018-12-12T08:13:12.345Z,8.20
2018-12-12T08:15:39.936Z,54.87
2018-12-12T08:18:07.480Z,6.00
2018-12-12T08:20:36.026Z,8.57
2018-12-12T08:23:04.339Z,7.40
2018-12-12T08:25:31.928Z,5.07
2018-12-12T08:27:59.475Z,5.40
2018-12-12T08:30:27.065Z,8.97
2018-12-12T08:32:55.408Z,6.30
2018-12-12T08:35:22.956Z,6.40
2018-12-12T08:37:50.528Z,8.80
2018-12-12T08:40:18.108Z,7.57
2018-12-12T08:42:46.454Z,8.60
2018-12-12T08:45:13.999Z,9.73
2018-12-12T08:47:41.591Z,9.07
2018-12-12T08:50:09.182Z,8.37
2018-12-12T08:52:36.737Z,13.23
2018-12-12T08:55:04.324Z,11.93
2018-12-12T08:57:31.900Z,11.50
2018-12-12T08:59:59.465Z,8.27
2018-12-12T09:02:27.035Z,8.10
2018-12-12T09:04:54.577Z,7.67
2018-12-12T09:07:22.154Z,7.83
2018-12-12T09:09:49.695Z,9.27
2018-12-12T09:12:17.271Z,7.27
2018-12-12T09:14:44.810Z,5.10
2018-12-12T09:17:12.396Z,4.70
2018-12-12T09:19:40.702Z,4.30
2018-12-12T09:22:08.276Z,4.03
2018-12-12T09:24:35.811Z,5.60
2018-12-12T09:27:03.411Z,7.53
2018-12-12T09:29:30.948Z,8.67
2018-12-12T09:31:58.525Z,11.03
2018-12-12T09:34:26.072Z,11.70
2018-12-12T09:36:54.663Z,7.53
2018-12-12T09:39:22.204Z,5.60
2018-12-12T09:41:51.743Z,3.43
2018-12-12T09:44:19.288Z,3.77
2018-12-12T09:46:46.868Z,4.93
2018-12-12T09:49:14.409Z,6.20
2018-12-12T09:51:41.988Z,8.90
2018-12-12T09:54:10.301Z,9.30
2018-12-12T09:56:39.837Z,7.60
2018-12-12T09:59:07.379Z,6.70
2018-12-12T10:01:34.955Z,7.53
2018-12-12T10:04:02.534Z,5.07
2018-12-12T10:06:30.072Z,5.70
2018-12-12T10:08:57.658Z,6.40
2018-12-12T10:11:25.246Z,6.07
2018-12-12T10:13:53.743Z,5.40
2018-12-12T10:16:21.327Z,4.93
2018-12-12T10:18:48.865Z,4.70
2018-12-12T10:21:16.408Z,5.20
2018-12-12T10:23:43.982Z,5.30
2018-12-12T10:26:11.556Z,6.13
2018-12-12T10:28:40.079Z,5.37
2018-12-12T10:31:08.591Z,4.90
2018-12-12T10:33:37.814Z,7.13
2018-12-12T10:36:03.797Z,5.73
2018-12-12T10:38:31.372Z,5.03
2018-12-12T10:40:58.923Z,5.63
2018-12-12T10:43:26.502Z,5.97
2018-12-12T10:45:55.059Z,5.50
2018-12-12T10:48:22.642Z,4.93
2018-12-12T10:50:50.178Z,4.40
2018-12-12T10:53:17.754Z,4.73
2018-12-12T10:55:45.332Z,4.70
2018-12-12T10:58:12.908Z,4.90
2018-12-12T11:00:40.454Z,4.83
2018-12-12T11:06:04.421Z,6.87
2018-12-12T11:08:31.993Z,6.30
2018-12-12T11:10:59.532Z,5.20
2018-12-12T11:13:27.096Z,5.20
2018-12-12T11:15:56.632Z,5.67
2018-12-12T11:18:24.964Z,4.83
2018-12-12T11:20:52.502Z,5.27
2018-12-12T11:23:20.073Z,5.17
2018-12-12T11:25:47.670Z,8.50
2018-12-12T11:28:15.967Z,5.73
2018-12-12T11:30:43.531Z,5.00
2018-12-12T11:33:11.107Z,5.30
2018-12-12T11:35:38.648Z,4.13
2018-12-12T11:38:06.238Z,5.00
2018-12-12T11:40:33.808Z,5.07
2018-12-12T11:43:01.348Z,4.97
2018-12-12T11:45:28.920Z,5.73
2018-12-12T11:47:56.459Z,4.50
2018-12-12T11:50:24.019Z,4.00
2018-12-12T11:52:51.552Z,5.57
2018-12-12T11:55:19.120Z,4.87
2018-12-12T11:57:47.624Z,3.70
2018-12-12T12:00:15.207Z,3.87
2018-12-12T12:02:42.754Z,4.37
2018-12-12T12:05:10.296Z,4.10
2018-12-12T12:07:37.865Z,5.40
2018-12-12T12:10:05.409Z,4.70
2018-12-12T12:12:33.029Z,4.60
2018-12-12T12:15:02.567Z,3.83
2018-12-12T12:17:30.100Z,4.03
2018-12-12T12:19:57.768Z,3.67
2018-12-12T12:22:25.304Z,4.20
2018-12-12T12:24:52.882Z,3.97
2018-12-12T12:27:20.425Z,3.50
2018-12-12T12:29:47.996Z,4.80
2018-12-12T12:32:15.536Z,4.80
2018-12-12T12:34:43.114Z,3.87
2018-12-12T12:37:10.655Z,3.67
2018-12-12T12:39:38.228Z,3.87
2018-12-12T12:42:05.759Z,3.80
2018-12-12T12:44:33.332Z,3.70
2018-12-12T12:47:00.868Z,3.10
2018-12-12T12:49:28.432Z,3.70
2018-12-12T12:51:56.013Z,3.13
2018-12-12T12:54:23.579Z,3.93
2018-12-12T12:56:51.113Z,4.07
2018-12-12T12:59:18.686Z,3.70
2018-12-12T13:01:46.307Z,3.40
2018-12-12T13:04:13.875Z,3.20
2018-12-12T13:06:41.646Z,3.67
2018-12-12T13:09:09.240Z,3.97
2018-12-12T13:11:37.725Z,3.67
2018-12-12T13:14:05.278Z,3.50
2018-12-12T13:16:32.856Z,4.17
2018-12-12T13:19:01.372Z,4.10
2018-12-12T13:21:28.947Z,3.70
2018-12-12T13:23:57.464Z,4.30
2018-12-12T13:26:25.036Z,3.43
2018-12-12T13:28:52.628Z,3.90
2018-12-12T13:31:20.173Z,3.40
2018-12-12T13:33:47.708Z,4.20
2018-12-12T13:36:15.279Z,4.30
2018-12-12T13:38:42.836Z,3.87
2018-12-12T13:41:11.175Z,3.60
2018-12-12T13:43:38.712Z,4.37
2018-12-12T13:46:06.372Z,4.33
2018-12-12T13:48:33.940Z,3.90
2018-12-12T13:51:01.479Z,4.20
2018-12-12T13:53:29.076Z,4.37
2018-12-12T13:55:58.607Z,3.60
2018-12-12T13:58:26.173Z,3.50
2018-12-12T14:00:53.712Z,3.20
2018-12-12T14:03:21.280Z,3.50
2018-12-12T14:05:48.844Z,3.80
2018-12-12T14:08:16.411Z,3.70
2018-12-12T14:10:44.901Z,3.60
2018-12-12T14:13:12.476Z,3.30
2018-12-12T14:15:40.065Z,3.90
2018-12-12T14:18:07.656Z,9.27
2018-12-12T14:20:35.193Z,4.63
2018-12-12T14:23:02.841Z,3.83
2018-12-12T14:25:30.413Z,4.07
2018-12-12T14:27:57.993Z,5.03
2018-12-12T14:30:25.527Z,4.70
2018-12-12T14:32:53.852Z,4.20
2018-12-12T14:35:23.429Z,3.20
2018-12-12T14:37:50.999Z,5.40
2018-12-12T14:40:18.528Z,4.13
2018-12-12T14:42:46.096Z,6.07
2018-12-12T14:45:13.647Z,6.10
2018-12-12T14:47:41.999Z,16.93
2018-12-12T14:50:09.547Z,14.10
2018-12-12T14:52:37.090Z,7.87
2018-12-12T14:55:04.679Z,7.43
2018-12-12T14:57:34.971Z,5.20
2018-12-12T15:00:02.560Z,5.23
2018-12-12T15:02:30.096Z,5.23
2018-12-12T15:04:58.398Z,8.10
2018-12-12T15:07:26.019Z,42.53
2018-12-12T15:09:55.578Z,31.40
2018-12-12T15:12:23.119Z,18.57
2018-12-12T15:14:50.683Z,6.50
2018-12-12T15:17:18.275Z,8.93
2018-12-12T15:19:45.840Z,5.67
2018-12-12T15:22:13.399Z,6.00
2018-12-12T15:24:40.994Z,6.27
2018-12-12T15:27:08.564Z,6.37
2018-12-12T15:29:36.135Z,8.57
2018-12-12T15:32:03.677Z,7.27
2018-12-12T15:34:31.258Z,10.07
2018-12-12T15:36:58.806Z,11.53
2018-12-12T15:39:26.387Z,11.97
2018-12-12T15:41:53.924Z,8.53
2018-12-12T15:44:21.468Z,9.00
2018-12-12T15:46:51.800Z,9.87
2018-12-12T15:49:19.336Z,6.00
2018-12-12T15:51:48.816Z,5.50
2018-12-12T15:54:16.408Z,5.77
2018-12-12T15:56:43.961Z,5.30
2018-12-12T15:59:12.293Z,4.57
2018-12-12T16:01:39.863Z,7.57
2018-12-12T16:04:07.444Z,6.30
2018-12-12T16:06:34.987Z,5.87
2018-12-12T16:09:02.612Z,3.90
2018-12-12T16:11:31.238Z,5.80
2018-12-12T16:14:00.761Z,19.40
2018-12-12T16:16:29.082Z,14.97
2018-12-12T16:18:56.658Z,14.67
2018-12-12T16:21:24.207Z,13.33
2018-12-12T16:23:51.783Z,9.77
2018-12-12T16:26:20.290Z,7.17
2018-12-12T16:28:47.872Z,6.77
2018-12-12T16:31:17.420Z,10.87
2018-12-12T16:33:45.012Z,7.93
2018-12-12T16:36:12.587Z,6.00
2018-12-12T16:38:40.129Z,5.37
2018-12-12T16:41:07.668Z,4.70
2018-12-12T16:43:36.021Z,10.37
2018-12-12T16:46:03.576Z,10.20
2018-12-12T16:48:31.134Z,6.83
2018-12-12T16:50:59.684Z,5.93
2018-12-12T16:53:27.228Z,8.20
2018-12-12T16:55:54.803Z,7.67
2018-12-12T16:58:22.385Z,8.73
2018-12-12T17:00:49.930Z,8.47
2018-12-12T17:03:17.512Z,20.07
2018-12-12T17:05:45.101Z,31.70
2018-12-12T17:08:12.788Z,25.17
2018-12-12T17:10:41.296Z,13.00
2018-12-12T17:13:08.852Z,25.40
2018-12-12T17:15:36.423Z,29.27
2018-12-12T17:18:04.511Z,41.47
2018-12-12T17:20:32.083Z,20.30
2018-12-12T17:22:59.624Z,28.13
2018-12-12T17:25:27.974Z,27.53
2018-12-12T17:27:55.516Z,39.57
2018-12-12T17:30:23.104Z,28.80
2018-12-12T17:32:52.971Z,24.00
2018-12-12T17:35:19.256Z,27.63
2018-12-12T17:37:46.830Z,44.10
2018-12-12T17:40:14.387Z,59.30
2018-12-12T17:42:41.971Z,36.60
2018-12-12T17:45:09.555Z,29.90
2018-12-12T17:47:38.106Z,27.33
2018-12-12T17:50:05.691Z,24.53
2018-12-12T17:52:33.228Z,23.40
2018-12-12T17:55:00.808Z,21.07
2018-12-12T17:57:28.348Z,23.00
2018-12-12T17:59:55.932Z,21.97
2018-12-12T18:02:23.750Z,32.23
2018-12-12T18:04:51.340Z,29.77
2018-12-12T18:07:18.894Z,18.93
2018-12-12T18:09:46.487Z,19.80
2018-12-12T18:12:14.830Z,21.20
2018-12-12T18:14:42.396Z,16.10
2018-12-12T18:17:09.978Z,19.53
2018-12-12T18:19:37.526Z,21.60
2018-12-12T18:22:05.104Z,21.87
2018-12-12T18:24:32.654Z,22.77
2018-12-12T18:27:00.231Z,23.87
2018-12-12T18:29:28.733Z,22.63
2018-12-12T18:31:56.308Z,19.40
2018-12-12T18:34:23.852Z,21.93
2018-12-12T18:36:52.532Z,19.93
2018-12-12T18:39:21.093Z,18.20
2018-12-12T18:41:48.978Z,23.37
2018-12-12T18:44:16.579Z,22.53
2018-12-12T18:46:44.161Z,27.27
2018-12-12T18:49:12.579Z,22.83
2018-12-12T18:51:40.334Z,21.20
2018-12-12T18:54:07.916Z,24.07
2018-12-12T18:56:35.508Z,20.77
2018-12-12T18:59:03.858Z,23.23
2018-12-12T19:01:31.407Z,23.90
2018-12-12T19:03:58.984Z,19.50
2018-12-12T19:06:26.565Z,19.07
2018-12-12T19:08:55.872Z,19.47
2018-12-12T19:11:23.459Z,20.30
2018-12-12T19:13:51.031Z,19.97
2018-12-12T19:16:18.573Z,21.07
2018-12-12T19:18:46.155Z,21.23
2018-12-12T19:21:13.751Z,21.53
2018-12-12T19:23:42.101Z,21.80
2018-12-12T19:26:09.639Z,21.80
2018-12-12T19:28:37.217Z,32.30
2018-12-12T19:31:04.811Z,24.70
2018-12-12T19:33:32.406Z,27.90
2018-12-12T19:36:00.001Z,30.63
2018-12-12T19:38:28.344Z,35.80
2018-12-12T19:40:55.920Z,37.30
2018-12-12T19:43:23.495Z,34.20
2018-12-12T19:45:51.047Z,34.40
2018-12-12T19:48:18.620Z,36.10
2018-12-12T19:50:48.684Z,36.50
2018-12-12T19:53:16.267Z,38.07
2018-12-12T19:55:44.783Z,41.20
2018-12-12T19:58:12.363Z,41.53
2018-12-12T20:00:40.440Z,38.67
2018-12-12T20:03:08.044Z,39.07
2018-12-12T20:05:41.277Z,38.97
2018-12-12T20:08:03.812Z,36.43
2018-12-12T20:10:31.386Z,35.57
2018-12-12T20:12:58.932Z,36.73
2018-12-12T20:15:33.769Z,36.20
2018-12-12T20:18:01.403Z,34.90
2018-12-12T20:20:28.986Z,36.40
2018-12-12T20:22:56.536Z,31.80
2018-12-12T20:25:24.151Z,31.13
2018-12-12T20:27:51.743Z,27.90
2018-12-12T20:30:20.300Z,25.33
2018-12-12T20:32:50.601Z,23.17
2018-12-12T20:35:18.188Z,24.27
2018-12-12T20:37:45.735Z,24.57
2018-12-12T20:40:15.055Z,22.50
2018-12-12T20:42:42.603Z,28.37
2018-12-12T20:45:10.186Z,21.50
2018-12-12T20:47:37.776Z,18.67
2018-12-12T20:50:05.363Z,18.50
2018-12-12T20:52:32.908Z,17.20
2018-12-12T20:55:00.491Z,15.30
2018-12-12T20:57:28.037Z,14.10
2018-12-12T20:59:55.617Z,15.03
2018-12-12T21:02:23.201Z,17.80
2018-12-12T21:04:50.784Z,15.00
2018-12-12T21:07:18.327Z,14.03
2018-12-12T21:09:47.849Z,13.63
2018-12-12T21:12:15.429Z,14.90
2018-12-12T21:14:43.012Z,15.70
2018-12-12T21:17:10.555Z,14.70
2018-12-12T21:19:38.966Z,14.63
2018-12-12T21:22:06.535Z,13.53
2018-12-12T21:24:34.112Z,12.30
2018-12-12T21:27:02.678Z,11.20
2018-12-12T21:29:30.535Z,9.97
2018-12-12T21:31:58.282Z,11.17
2018-12-12T21:34:25.882Z,10.10
2018-12-12T21:36:54.405Z,10.07
2018-12-12T21:39:21.984Z,10.67
2018-12-12T21:41:49.564Z,11.10
2018-12-12T21:44:18.176Z,11.53
2018-12-12T21:46:45.731Z,10.23
2018-12-12T21:49:14.085Z,10.40
2018-12-12T21:51:41.636Z,11.50
2018-12-12T21:54:09.220Z,10.07
2018-12-12T21:56:36.755Z,10.83
2018-12-12T21:59:04.332Z,10.17
2018-12-12T22:01:32.834Z,10.90
2018-12-12T22:04:00.416Z,9.77
2018-12-12T22:06:27.997Z,10.90
2018-12-12T22:08:55.576Z,10.40
2018-12-12T22:11:24.076Z,9.90
2018-12-12T22:13:52.424Z,10.67
2018-12-12T22:16:19.997Z,10.13
2018-12-12T22:18:47.579Z,10.47
2018-12-12T22:21:15.137Z,8.33
2018-12-12T22:23:42.708Z,7.80
2018-12-12T22:26:10.333Z,7.60
2018-12-12T22:28:38.697Z,7.63
2018-12-12T22:31:07.220Z,7.47
2018-12-12T22:33:34.828Z,8.93
2018-12-12T22:36:02.407Z,8.60
2018-12-12T22:38:29.960Z,9.50
2018-12-12T22:40:57.540Z,10.50
2018-12-12T22:43:25.123Z,11.43
2018-12-12T22:45:52.672Z,9.83
2018-12-12T22:48:20.785Z,8.63
2018-12-12T22:50:47.889Z,7.60
2018-12-12T22:53:15.473Z,7.20
2018-12-12T22:55:43.189Z,6.40
2018-12-12T22:58:11.727Z,6.47
2018-12-12T23:00:39.292Z,6.40
2018-12-12T23:03:06.879Z,6.50
2018-12-12T23:05:34.422Z,7.10
2018-12-12T23:08:01.997Z,7.00
2018-12-12T23:10:31.377Z,5.90
2018-12-12T23:12:58.922Z,5.87
2018-12-12T23:15:26.504Z,5.43
2018-12-12T23:17:54.811Z,5.00
2018-12-12T23:20:23.331Z,6.73
2018-12-12T23:22:50.878Z,5.90
2018-12-12T23:25:18.450Z,5.87
2018-12-12T23:27:45.991Z,5.83
2018-12-12T23:30:13.575Z,5.30
2018-12-12T23:32:41.870Z,5.40
2018-12-12T23:35:09.460Z,5.47
2018-12-12T23:37:37.027Z,6.20
2018-12-12T23:40:05.584Z,5.70
2018-12-12T23:42:33.883Z,6.20
2018-12-12T23:45:01.418Z,5.83
2018-12-12T23:47:30.973Z,6.50
2018-12-12T23:49:58.515Z,5.90
2018-12-12T23:52:26.082Z,6.30
2018-12-12T23:54:53.634Z,5.20
2018-12-12T23:57:21.199Z,5.90
2018-12-12T23:59:48.742Z,5.70
